createdAt,value
2023-02-11T00:00:21.080Z,4.5
2023-02-11T00:01:24.017Z,4.5
2023-02-11T00:02:27.274Z,4.5
2023-02-11T00:03:32.384Z,4.5
2023-02-11T00:04:35.301Z,4.5
2023-02-11T00:05:38.979Z,4.4
2023-02-11T00:06:42.614Z,4.4
2023-02-11T00:07:46.600Z,4.5
2023-02-11T00:08:50.125Z,4.5
2023-02-11T00:09:52.851Z,4.5
2023-02-11T00:10:56.472Z,4.5
2023-02-11T00:11:59.936Z,4.5
2023-02-11T00:13:04.408Z,4.5
2023-02-11T00:14:08.363Z,4.5
2023-02-11T00:15:11.853Z,4.5
2023-02-11T00:16:15.385Z,4.5
2023-02-11T00:17:18.555Z,4.5
2023-02-11T00:18:21.857Z,4.5
2023-02-11T00:19:39.930Z,4.4
2023-02-11T00:20:43.436Z,4.5
2023-02-11T00:21:47.344Z,4.5
2023-02-11T00:22:50.361Z,4.5
2023-02-11T00:23:53.846Z,4.4
2023-02-11T00:24:56.626Z,4.4
2023-02-11T00:26:00.102Z,4.5
2023-02-11T00:27:02.996Z,4.5
2023-02-11T00:28:06.971Z,4.5
2023-02-11T00:29:11.118Z,4.5
2023-02-11T00:30:14.101Z,4.5
2023-02-11T00:31:19.391Z,4.5
2023-02-11T00:32:22.699Z,4.5
2023-02-11T00:33:26.338Z,4.5
2023-02-11T00:34:30.049Z,4.4
2023-02-11T00:35:34.531Z,4.4
2023-02-11T00:36:37.425Z,4.4
2023-02-11T00:37:40.936Z,4.5
2023-02-11T00:38:44.066Z,4.5
2023-02-11T00:39:48.125Z,4.5
2023-02-11T00:40:51.797Z,4.5
2023-02-11T00:41:55.058Z,4.5
2023-02-11T00:42:58.159Z,4.5
2023-02-11T00:44:02.871Z,4.5
2023-02-11T00:45:05.890Z,4.4
2023-02-11T00:46:09.598Z,4.4
2023-02-11T00:47:12.215Z,4.4
2023-02-11T00:48:16.385Z,4.5
2023-02-11T00:49:19.476Z,4.5
2023-02-11T00:50:22.370Z,4.4
2023-02-11T00:51:26.098Z,4.4
2023-02-11T00:52:29.412Z,4.4
2023-02-11T00:53:32.627Z,4.4
2023-02-11T00:54:36.028Z,4.3
2023-02-11T00:55:39.739Z,4.3
2023-02-11T00:56:58.113Z,4.3
2023-02-11T00:58:01.784Z,4.3
2023-02-11T00:59:04.930Z,4.3
2023-02-11T01:00:07.827Z,4.3
2023-02-11T01:01:11.232Z,4.4
2023-02-11T01:02:14.739Z,4.3
2023-02-11T01:03:17.800Z,4.4
2023-02-11T01:04:20.887Z,4.3
2023-02-11T01:05:24.413Z,4.3
2023-02-11T01:06:27.771Z,4.4
2023-02-11T01:07:30.899Z,4.3
2023-02-11T01:08:34.651Z,4.4
2023-02-11T01:09:38.026Z,4.3
2023-02-11T01:10:41.425Z,4.4
2023-02-11T01:11:44.122Z,4.4
2023-02-11T01:12:47.538Z,4.4
2023-02-11T01:13:50.405Z,4.4
2023-02-11T01:14:53.768Z,4.4
2023-02-11T01:15:57.731Z,4.4
2023-02-11T01:17:01.583Z,4.4
2023-02-11T01:18:04.398Z,4.4
2023-02-11T01:19:07.760Z,4.4
2023-02-11T01:20:12.190Z,4.4
2023-02-11T01:21:15.269Z,4.4
2023-02-11T01:22:18.341Z,4.4
2023-02-11T01:23:21.626Z,4.4
2023-02-11T01:24:24.541Z,4.4
2023-02-11T01:25:27.882Z,4.4
2023-02-11T01:26:31.499Z,4.4
2023-02-11T01:27:34.886Z,4.5
2023-02-11T01:28:38.366Z,4.4
2023-02-11T01:29:41.558Z,4.4
2023-02-11T01:30:45.204Z,4.4
2023-02-11T01:31:48.276Z,4.4
2023-02-11T01:32:51.754Z,4.4
2023-02-11T01:33:55.419Z,4.4
2023-02-11T01:34:58.026Z,4.5
2023-02-11T01:36:00.855Z,4.5
2023-02-11T01:37:03.866Z,4.5
2023-02-11T01:38:07.316Z,4.5
2023-02-11T01:39:10.683Z,4.5
2023-02-11T01:40:14.537Z,4.5
2023-02-11T01:41:18.018Z,4.5
2023-02-11T01:42:21.730Z,4.5
2023-02-11T01:43:24.532Z,4.5
2023-02-11T01:44:27.920Z,4.6
2023-02-11T01:45:30.738Z,4.5
2023-02-11T01:46:34.757Z,4.6
2023-02-11T01:47:37.764Z,4.6
2023-02-11T01:48:41.128Z,4.6
2023-02-11T01:49:43.603Z,4.6
2023-02-11T01:50:46.316Z,4.6
2023-02-11T01:51:49.410Z,4.6
2023-02-11T01:52:52.187Z,4.6
2023-02-11T01:53:54.707Z,4.6
2023-02-11T01:54:57.806Z,4.6
2023-02-11T01:56:01.263Z,4.6
2023-02-11T01:57:04.276Z,4.6
2023-02-11T01:58:07.729Z,4.6
2023-02-11T01:59:11.052Z,4.6
2023-02-11T02:00:14.076Z,4.6
2023-02-11T02:01:17.655Z,4.6
2023-02-11T02:02:21.416Z,4.6
2023-02-11T02:03:25.160Z,4.6
2023-02-11T02:04:28.347Z,4.6
2023-02-11T02:05:31.529Z,4.6
2023-02-11T02:06:34.232Z,4.6
2023-02-11T02:07:37.118Z,4.6
2023-02-11T02:08:40.619Z,4.6
2023-02-11T02:09:43.164Z,4.7
2023-02-11T02:10:46.232Z,4.6
2023-02-11T02:11:49.734Z,4.6
2023-02-11T02:12:53.383Z,4.6
2023-02-11T02:13:55.534Z,4.6
2023-02-11T02:14:58.793Z,4.7
2023-02-11T02:16:02.621Z,4.6
2023-02-11T02:17:05.747Z,4.7
2023-02-11T02:18:09.499Z,4.7
2023-02-11T02:19:12.596Z,4.7
2023-02-11T02:20:16.321Z,4.7
2023-02-11T02:21:18.857Z,4.7
2023-02-11T02:22:21.997Z,4.7
2023-02-11T02:23:24.723Z,4.7
2023-02-11T02:24:27.553Z,4.8
2023-02-11T02:25:30.342Z,4.7
2023-02-11T02:26:33.350Z,4.7
2023-02-11T02:27:36.894Z,4.7
2023-02-11T02:28:40.366Z,4.8
2023-02-11T02:29:43.665Z,4.8
2023-02-11T02:30:45.797Z,4.8
2023-02-11T02:31:49.586Z,4.8
2023-02-11T02:32:52.677Z,4.8
2023-02-11T02:33:56.077Z,4.8
2023-02-11T02:34:59.006Z,4.8
2023-02-11T02:36:02.483Z,4.8
2023-02-11T02:37:05.536Z,4.8
2023-02-11T02:38:08.623Z,4.8
2023-02-11T02:39:11.130Z,4.8
2023-02-11T02:40:14.245Z,4.8
2023-02-11T02:41:17.936Z,4.8
2023-02-11T02:42:20.680Z,4.8
2023-02-11T02:43:24.440Z,4.9
2023-02-11T02:44:27.892Z,4.9
2023-02-11T02:45:31.164Z,4.9
2023-02-11T02:46:34.368Z,4.9
2023-02-11T02:47:37.295Z,4.9
2023-02-11T02:48:41.059Z,4.9
2023-02-11T02:49:44.525Z,4.9
2023-02-11T02:50:47.927Z,4.9
2023-02-11T02:51:51.104Z,4.9
2023-02-11T02:52:54.842Z,4.9
2023-02-11T02:53:57.844Z,4.9
2023-02-11T02:55:00.363Z,4.9
2023-02-11T02:56:03.099Z,4.9
2023-02-11T02:57:06.826Z,4.9
2023-02-11T02:58:09.522Z,4.9
2023-02-11T02:59:12.354Z,5
2023-02-11T03:00:15.269Z,5
2023-02-11T03:01:18.366Z,5
2023-02-11T03:02:21.569Z,5
2023-02-11T03:03:25.211Z,5
2023-02-11T03:04:28.428Z,4.9
2023-02-11T03:05:31.656Z,5
2023-02-11T03:06:34.756Z,5
2023-02-11T03:07:38.467Z,4.9
2023-02-11T03:08:41.568Z,5
2023-02-11T03:09:44.679Z,5
2023-02-11T03:10:48.092Z,4.9
2023-02-11T03:11:50.596Z,5
2023-02-11T03:12:54.305Z,5
2023-02-11T03:13:57.391Z,5
2023-02-11T03:15:00.811Z,5
2023-02-11T03:16:04.247Z,5
2023-02-11T03:17:07.743Z,5
2023-02-11T03:18:10.545Z,5
2023-02-11T03:19:13.945Z,5
2023-02-11T03:20:17.329Z,5
2023-02-11T03:21:21.442Z,5
2023-02-11T03:22:24.762Z,5
2023-02-11T03:23:28.119Z,5
2023-02-11T03:24:31.003Z,5.1
2023-02-11T03:25:34.663Z,5
2023-02-11T03:26:38.426Z,5
2023-02-11T03:27:41.146Z,5
2023-02-11T03:28:43.873Z,5
2023-02-11T03:29:47.024Z,5.1
2023-02-11T03:30:50.416Z,5
2023-02-11T03:31:54.013Z,5
2023-02-11T03:32:57.241Z,5
2023-02-11T03:34:00.228Z,5
2023-02-11T03:35:03.685Z,5.1
2023-02-11T03:36:06.711Z,5
2023-02-11T03:37:09.500Z,5
2023-02-11T03:38:12.489Z,5
2023-02-11T03:39:15.924Z,5
2023-02-11T03:40:18.946Z,5
2023-02-11T03:41:22.294Z,5.1
2023-02-11T03:42:25.133Z,5.1
2023-02-11T03:43:28.391Z,5.1
2023-02-11T03:44:31.203Z,5.1
2023-02-11T03:45:35.067Z,5.1
2023-02-11T03:46:38.493Z,5.1
2023-02-11T03:47:41.807Z,5.1
2023-02-11T03:48:44.785Z,5.1
2023-02-11T03:49:47.577Z,5
2023-02-11T03:50:50.060Z,5.1
2023-02-11T03:51:53.111Z,5.1
2023-02-11T03:52:56.200Z,5.1
2023-02-11T03:53:59.389Z,5.1
2023-02-11T03:55:02.792Z,5.1
2023-02-11T03:56:05.795Z,5.1
2023-02-11T03:57:09.561Z,5.1
2023-02-11T03:58:12.626Z,5.2
2023-02-11T03:59:15.753Z,5.1
2023-02-11T04:00:18.478Z,5.1
2023-02-11T04:01:21.890Z,5.1
2023-02-11T04:02:26.001Z,5.1
2023-02-11T04:03:30.065Z,5.2
2023-02-11T04:04:33.214Z,5.2
2023-02-11T04:05:36.464Z,5.2
2023-02-11T04:06:39.585Z,5.2
2023-02-11T04:07:42.046Z,5.2
2023-02-11T04:08:45.802Z,5.2
2023-02-11T04:09:48.347Z,5.2
2023-02-11T04:10:51.500Z,5.2
2023-02-11T04:11:54.675Z,5.2
2023-02-11T04:12:57.389Z,5.2
2023-02-11T04:14:00.740Z,5.2
2023-02-11T04:15:03.839Z,5.2
2023-02-11T04:16:07.452Z,5.2
2023-02-11T04:17:10.184Z,5.2
2023-02-11T04:18:13.601Z,5.2
2023-02-11T04:19:17.039Z,5.2
2023-02-11T04:20:19.286Z,5.3
2023-02-11T04:21:21.989Z,5.3
2023-02-11T04:22:24.460Z,5.3
2023-02-11T04:23:27.193Z,5.3
2023-02-11T04:24:30.576Z,5.3
2023-02-11T04:25:33.339Z,5.3
2023-02-11T04:26:36.690Z,5.3
2023-02-11T04:27:39.461Z,5.3
2023-02-11T04:28:43.082Z,5.3
2023-02-11T04:29:45.902Z,5.3
2023-02-11T04:30:49.825Z,5.3
2023-02-11T04:31:53.609Z,5.3
2023-02-11T04:32:56.453Z,5.3
2023-02-11T04:33:59.877Z,5.3
2023-02-11T04:35:03.312Z,5.3
2023-02-11T04:36:06.021Z,5.3
2023-02-11T04:37:09.445Z,5.3
2023-02-11T04:38:12.600Z,5.3
2023-02-11T04:39:15.419Z,5.4
2023-02-11T04:40:19.257Z,5.3
2023-02-11T04:41:22.560Z,5.4
2023-02-11T04:42:25.200Z,5.3
2023-02-11T04:43:28.020Z,5.4
2023-02-11T04:44:31.036Z,5.4
2023-02-11T04:45:34.303Z,5.4
2023-02-11T04:46:37.605Z,5.4
2023-02-11T04:47:40.619Z,5.4
2023-02-11T04:48:44.053Z,5.4
2023-02-11T04:49:47.622Z,5.4
2023-02-11T04:50:50.601Z,5.4
2023-02-11T04:51:53.607Z,5.4
2023-02-11T04:52:56.691Z,5.4
2023-02-11T04:54:00.046Z,5.5
2023-02-11T04:55:02.846Z,5.5
2023-02-11T04:56:06.298Z,5.5
2023-02-11T04:57:10.026Z,5.5
2023-02-11T04:58:13.472Z,5.5
2023-02-11T04:59:16.481Z,5.5
2023-02-11T05:00:19.960Z,5.5
2023-02-11T05:01:23.480Z,5.5
2023-02-11T05:02:26.955Z,5.5
2023-02-11T05:03:30.016Z,5.5
2023-02-11T05:04:33.471Z,5.5
2023-02-11T05:05:37.001Z,5.5
2023-02-11T05:06:40.179Z,5.6
2023-02-11T05:07:43.116Z,5.6
2023-02-11T05:08:46.474Z,5.6
2023-02-11T05:09:49.491Z,5.5
2023-02-11T05:10:52.932Z,5.5
2023-02-11T05:11:56.596Z,5.6
2023-02-11T05:12:59.721Z,5.5
2023-02-11T05:14:02.780Z,5.5
2023-02-11T05:15:05.538Z,5.6
2023-02-11T05:16:08.261Z,5.6
2023-02-11T05:17:11.066Z,5.6
2023-02-11T05:18:14.524Z,5.5
2023-02-11T05:19:17.837Z,5.6
2023-02-11T05:20:21.214Z,5.6
2023-02-11T05:21:25.224Z,5.6
2023-02-11T05:22:28.319Z,5.6
2023-02-11T05:23:31.404Z,5.6
2023-02-11T05:24:34.389Z,5.6
2023-02-11T05:25:36.911Z,5.6
2023-02-11T05:26:39.373Z,5.6
2023-02-11T05:27:42.864Z,5.6
2023-02-11T05:28:46.157Z,5.6
2023-02-11T05:29:49.197Z,5.6
2023-02-11T05:30:52.892Z,5.6
2023-02-11T05:31:56.584Z,5.6
2023-02-11T05:32:59.086Z,5.6
2023-02-11T05:34:01.627Z,5.6
2023-02-11T05:35:04.095Z,5.6
2023-02-11T05:36:07.735Z,5.6
2023-02-11T05:37:11.765Z,5.6
2023-02-11T05:38:15.237Z,5.6
2023-02-11T05:39:18.305Z,5.6
2023-02-11T05:40:21.173Z,5.6
2023-02-11T05:41:24.798Z,5.7
2023-02-11T05:42:27.930Z,5.7
2023-02-11T05:43:31.045Z,5.7
2023-02-11T05:44:34.472Z,5.7
2023-02-11T05:45:37.767Z,5.7
2023-02-11T05:46:41.685Z,5.7
2023-02-11T05:47:44.842Z,5.6
2023-02-11T05:48:48.120Z,5.7
2023-02-11T05:49:51.249Z,5.6
2023-02-11T05:50:54.048Z,5.6
2023-02-11T05:51:57.115Z,5.6
2023-02-11T05:53:01.062Z,5.6
2023-02-11T05:54:04.471Z,5.6
2023-02-11T05:55:07.424Z,5.6
2023-02-11T05:56:10.457Z,5.6
2023-02-11T05:57:13.552Z,5.6
2023-02-11T05:58:17.026Z,5.6
2023-02-11T05:59:20.643Z,5.6
2023-02-11T06:00:23.986Z,5.6
2023-02-11T06:01:27.759Z,5.6
2023-02-11T06:02:31.240Z,5.6
2023-02-11T06:03:35.107Z,5.6
2023-02-11T06:04:37.839Z,5.6
2023-02-11T06:05:40.613Z,5.6
2023-02-11T06:06:43.641Z,5.6
2023-02-11T06:07:47.060Z,5.6
2023-02-11T06:08:51.229Z,5.6
2023-02-11T06:09:54.953Z,5.6
2023-02-11T06:10:58.134Z,5.6
2023-02-11T06:12:00.605Z,5.6
2023-02-11T06:13:03.596Z,5.6
2023-02-11T06:14:06.984Z,5.6
2023-02-11T06:15:10.758Z,5.6
2023-02-11T06:16:14.505Z,5.6
2023-02-11T06:17:18.031Z,5.6
2023-02-11T06:18:21.422Z,5.7
2023-02-11T06:19:24.828Z,5.6
2023-02-11T06:20:27.911Z,5.7
2023-02-11T06:21:46.116Z,5.7
2023-02-11T06:22:48.563Z,5.7
2023-02-11T06:23:51.912Z,5.6
2023-02-11T06:25:03.652Z,5.6
2023-02-11T06:26:06.770Z,5.6
2023-02-11T06:27:09.653Z,5.7
2023-02-11T06:28:12.798Z,5.7
2023-02-11T06:29:17.154Z,5.7
2023-02-11T06:30:20.314Z,5.7
2023-02-11T06:31:24.441Z,5.7
2023-02-11T06:32:47.928Z,5.7
2023-02-11T06:33:52.015Z,5.7
2023-02-11T06:34:54.738Z,5.7
2023-02-11T06:35:57.881Z,5.7
2023-02-11T06:37:00.349Z,5.7
2023-02-11T06:38:03.450Z,5.7
2023-02-11T06:39:06.551Z,5.8
2023-02-11T06:40:09.974Z,5.7
2023-02-11T06:41:12.771Z,5.7
2023-02-11T06:42:15.900Z,5.7
2023-02-11T06:43:19.332Z,5.8
2023-02-11T06:44:22.147Z,5.7
2023-02-11T06:45:25.534Z,5.7
2023-02-11T06:46:29.494Z,5.8
2023-02-11T06:47:32.778Z,5.8
2023-02-11T06:48:35.496Z,5.8
2023-02-11T06:49:38.978Z,5.8
2023-02-11T06:50:42.369Z,5.7
2023-02-11T06:51:45.414Z,5.8
2023-02-11T06:52:48.570Z,5.8
2023-02-11T06:53:51.409Z,5.8
2023-02-11T06:54:54.947Z,5.8
2023-02-11T06:55:58.746Z,5.8
2023-02-11T06:57:02.331Z,5.8
2023-02-11T06:58:05.641Z,5.8
2023-02-11T06:59:08.899Z,5.8
2023-02-11T07:00:12.066Z,5.9
2023-02-11T07:01:15.557Z,5.8
2023-02-11T07:02:22.817Z,5.9
2023-02-11T07:03:25.947Z,5.9
2023-02-11T07:04:28.846Z,5.9
2023-02-11T07:05:31.938Z,6
2023-02-11T07:06:35.002Z,6
2023-02-11T07:07:37.452Z,5.9
2023-02-11T07:08:40.452Z,6
2023-02-11T07:09:43.835Z,6
2023-02-11T07:10:46.873Z,6
2023-02-11T07:11:50.552Z,6.1
2023-02-11T07:12:53.483Z,6.1
2023-02-11T07:13:56.867Z,6.1
2023-02-11T07:15:00.208Z,6.1
2023-02-11T07:16:02.566Z,6.1
2023-02-11T07:17:06.177Z,6.1
2023-02-11T07:18:09.303Z,6.2
2023-02-11T07:19:12.667Z,6.2
2023-02-11T07:20:15.832Z,6.2
2023-02-11T07:21:18.722Z,6.2
2023-02-11T07:22:22.108Z,6.2
2023-02-11T07:23:25.545Z,6.2
2023-02-11T07:24:29.319Z,6.2
2023-02-11T07:25:32.113Z,6.2
2023-02-11T07:26:35.454Z,6.2
2023-02-11T07:27:38.840Z,6.3
2023-02-11T07:28:42.145Z,6.3
2023-02-11T07:29:45.487Z,6.3
2023-02-11T07:30:48.788Z,6.3
2023-02-11T07:31:52.213Z,6.3
2023-02-11T07:32:56.061Z,6.3
2023-02-11T07:33:59.473Z,6.3
2023-02-11T07:35:03.337Z,6.3
2023-02-11T07:36:06.850Z,6.3
2023-02-11T07:37:09.932Z,6.3
2023-02-11T07:38:12.641Z,6.3
2023-02-11T07:39:15.421Z,6.3
2023-02-11T07:40:18.248Z,6.4
2023-02-11T07:41:21.648Z,6.4
2023-02-11T07:42:24.406Z,6.3
2023-02-11T07:43:28.167Z,6.3
2023-02-11T07:44:31.814Z,6.4
2023-02-11T07:45:34.944Z,6.4
2023-02-11T07:46:38.340Z,6.4
2023-02-11T07:47:41.803Z,6.4
2023-02-11T07:48:45.873Z,6.4
2023-02-11T07:49:49.541Z,6.4
2023-02-11T07:50:52.665Z,6.4
2023-02-11T07:51:55.819Z,6.4
2023-02-11T07:52:59.650Z,6.4
2023-02-11T07:54:03.024Z,6.4
2023-02-11T07:55:06.939Z,6.4
2023-02-11T07:56:10.291Z,6.5
2023-02-11T07:57:13.368Z,6.5
2023-02-11T07:58:16.778Z,6.5
2023-02-11T07:59:20.530Z,6.5
2023-02-11T08:00:22.979Z,6.5
2023-02-11T08:01:26.574Z,6.5
2023-02-11T08:02:30.190Z,6.5
2023-02-11T08:03:33.018Z,6.5
2023-02-11T08:04:36.208Z,6.6
2023-02-11T08:05:39.312Z,6.6
2023-02-11T08:06:42.604Z,6.6
2023-02-11T08:07:45.600Z,6.7
2023-02-11T08:08:48.772Z,6.7
2023-02-11T08:09:51.284Z,6.7
2023-02-11T08:10:54.869Z,6.7
2023-02-11T08:11:57.335Z,6.7
2023-02-11T08:13:00.498Z,6.7
2023-02-11T08:14:03.863Z,6.7
2023-02-11T08:15:07.601Z,6.7
2023-02-11T08:16:11.217Z,6.7
2023-02-11T08:17:15.319Z,6.8
2023-02-11T08:18:18.373Z,6.8
2023-02-11T08:19:21.743Z,6.8
2023-02-11T08:20:25.512Z,6.8
2023-02-11T08:21:29.002Z,6.9
2023-02-11T08:22:32.068Z,6.9
2023-02-11T08:23:35.104Z,6.9
2023-02-11T08:24:37.816Z,6.9
2023-02-11T08:25:41.223Z,6.9
2023-02-11T08:26:44.219Z,6.9
2023-02-11T08:27:47.349Z,6.9
2023-02-11T08:28:50.694Z,7
2023-02-11T08:29:53.879Z,7
2023-02-11T08:30:57.599Z,7
2023-02-11T08:32:00.942Z,7
2023-02-11T08:33:03.835Z,7
2023-02-11T08:34:07.285Z,7.1
2023-02-11T08:35:10.664Z,7.1
2023-02-11T08:36:14.097Z,7.2
2023-02-11T08:37:17.816Z,7.2
2023-02-11T08:38:21.126Z,7.1
2023-02-11T08:39:24.066Z,7.2
2023-02-11T08:40:27.250Z,7.2
2023-02-11T08:41:30.391Z,7.2
2023-02-11T08:42:32.920Z,7.2
2023-02-11T08:43:36.003Z,7.2
2023-02-11T08:44:39.352Z,7.2
2023-02-11T08:45:42.537Z,7.2
2023-02-11T08:46:46.028Z,7.2
2023-02-11T08:47:49.126Z,7.2
2023-02-11T08:48:52.415Z,7.2
2023-02-11T08:49:55.512Z,7.3
2023-02-11T08:50:58.957Z,7.3
2023-02-11T08:52:02.323Z,7.3
2023-02-11T08:53:05.127Z,7.3
2023-02-11T08:54:08.875Z,7.3
2023-02-11T08:55:11.475Z,7.3
2023-02-11T08:56:15.314Z,7.3
2023-02-11T08:57:17.824Z,7.3
2023-02-11T08:58:21.296Z,7.4
2023-02-11T08:59:24.351Z,7.4
2023-02-11T09:00:28.122Z,7.4
2023-02-11T09:01:31.668Z,7.4
2023-02-11T09:02:35.747Z,7.4
2023-02-11T09:03:38.840Z,7.4
2023-02-11T09:04:41.895Z,7.5
2023-02-11T09:05:44.802Z,7.5
2023-02-11T09:06:47.972Z,7.5
2023-02-11T09:07:50.775Z,7.5
2023-02-11T09:08:54.212Z,7.5
2023-02-11T09:09:57.626Z,7.5
2023-02-11T09:11:00.757Z,7.5
2023-02-11T09:12:04.106Z,7.5
2023-02-11T09:13:07.484Z,7.5
2023-02-11T09:14:10.518Z,7.6
2023-02-11T09:15:13.614Z,7.6
2023-02-11T09:16:16.541Z,7.6
2023-02-11T09:17:19.573Z,7.7
2023-02-11T09:18:23.025Z,7.7
2023-02-11T09:19:26.421Z,7.7
2023-02-11T09:20:29.492Z,7.7
2023-02-11T09:21:32.624Z,7.7
2023-02-11T09:22:35.895Z,7.7
2023-02-11T09:23:39.634Z,7.7
2023-02-11T09:24:42.850Z,7.7
2023-02-11T09:25:45.391Z,7.7
2023-02-11T09:26:48.108Z,7.7
2023-02-11T09:27:51.214Z,7.7
2023-02-11T09:28:54.381Z,7.7
2023-02-11T09:29:57.466Z,7.8
2023-02-11T09:31:02.167Z,7.8
2023-02-11T09:32:11.119Z,7.8
2023-02-11T09:33:14.233Z,7.8
2023-02-11T09:34:17.908Z,7.8
2023-02-11T09:35:20.619Z,7.8
2023-02-11T09:36:23.078Z,7.8
2023-02-11T09:37:26.385Z,7.8
2023-02-11T09:38:30.181Z,7.9
2023-02-11T09:39:33.851Z,7.9
2023-02-11T09:40:36.686Z,7.9
2023-02-11T09:41:39.994Z,7.9
2023-02-11T09:42:43.688Z,7.9
2023-02-11T09:43:47.121Z,7.9
2023-02-11T09:44:51.159Z,8
2023-02-11T09:45:54.385Z,8
2023-02-11T09:46:57.344Z,8
2023-02-11T09:48:00.442Z,8
2023-02-11T09:49:03.803Z,8
2023-02-11T09:50:07.880Z,8.1
2023-02-11T09:51:11.692Z,8.1
2023-02-11T09:52:15.056Z,8.1
2023-02-11T09:53:18.120Z,8.1
2023-02-11T09:54:21.269Z,8.1
2023-02-11T09:55:24.952Z,8.1
2023-02-11T09:56:28.073Z,8.1
2023-02-11T09:57:31.718Z,8.1
2023-02-11T09:58:35.078Z,8.1
2023-02-11T09:59:38.433Z,8.1
2023-02-11T10:00:41.719Z,8.1
2023-02-11T10:01:44.795Z,8.1
2023-02-11T10:02:48.986Z,8.1
2023-02-11T10:03:51.720Z,8.1
2023-02-11T10:04:55.211Z,8.1
2023-02-11T10:05:58.668Z,8.1
2023-02-11T10:07:01.818Z,8.1
2023-02-11T10:08:04.816Z,8.1
2023-02-11T10:09:08.112Z,8.1
2023-02-11T10:10:11.143Z,8
2023-02-11T10:11:33.656Z,8
2023-02-11T10:12:37.379Z,8
2023-02-11T10:13:43.906Z,8
2023-02-11T10:14:45.915Z,8
2023-02-11T10:15:49.079Z,8
2023-02-11T10:16:52.564Z,8
2023-02-11T10:17:55.619Z,8
2023-02-11T10:18:59.073Z,8
2023-02-11T10:20:02.700Z,8
2023-02-11T10:21:06.494Z,8
2023-02-11T10:22:10.487Z,8
2023-02-11T10:23:14.214Z,8
2023-02-11T10:24:17.588Z,8
2023-02-11T10:25:20.700Z,7.9
2023-02-11T10:26:24.354Z,7.9
2023-02-11T10:27:27.239Z,7.9
2023-02-11T10:28:31.472Z,7.9
2023-02-11T10:29:34.059Z,7.9
2023-02-11T10:30:37.389Z,7.9
2023-02-11T10:31:40.388Z,7.8
2023-02-11T10:32:43.876Z,7.8
2023-02-11T10:33:47.059Z,7.8
2023-02-11T10:34:50.685Z,7.9
2023-02-11T10:35:53.117Z,7.9
2023-02-11T10:36:56.584Z,7.8
2023-02-11T10:37:59.056Z,7.8
2023-02-11T10:39:02.480Z,7.8
2023-02-11T10:40:06.133Z,7.8
2023-02-11T10:41:08.958Z,7.7
2023-02-11T10:42:12.090Z,7.8
2023-02-11T10:43:15.531Z,7.8
2023-02-11T10:44:18.966Z,7.7
2023-02-11T10:45:21.680Z,7.8
2023-02-11T10:46:25.468Z,7.7
2023-02-11T10:47:28.558Z,7.7
2023-02-11T10:48:32.568Z,7.8
2023-02-11T10:49:36.289Z,7.8
2023-02-11T10:50:39.660Z,7.8
2023-02-11T10:51:42.800Z,7.8
2023-02-11T10:52:46.477Z,7.8
2023-02-11T10:53:50.137Z,7.8
2023-02-11T10:54:52.358Z,7.8
2023-02-11T10:55:55.846Z,7.7
2023-02-11T10:56:59.302Z,7.7
2023-02-11T10:58:02.772Z,7.8
2023-02-11T10:59:06.233Z,7.8
2023-02-11T11:00:09.849Z,7.8
2023-02-11T11:01:26.733Z,7.8
2023-02-11T11:02:30.180Z,7.8
2023-02-11T11:03:33.002Z,7.8
2023-02-11T11:04:36.687Z,7.8
2023-02-11T11:05:39.476Z,7.8
2023-02-11T11:06:42.790Z,7.8
2023-02-11T11:07:45.664Z,7.8
2023-02-11T11:08:49.153Z,7.9
2023-02-11T11:09:52.033Z,7.9
2023-02-11T11:10:55.268Z,7.9
2023-02-11T11:11:58.267Z,7.9
2023-02-11T11:13:00.999Z,7.9
2023-02-11T11:14:04.643Z,7.8
2023-02-11T11:15:08.075Z,7.9
2023-02-11T11:16:12.069Z,7.9
2023-02-11T11:17:15.970Z,7.9
2023-02-11T11:18:25.224Z,7.9
2023-02-11T11:19:28.063Z,7.9
2023-02-11T11:20:31.128Z,7.9
2023-02-11T11:21:35.141Z,7.9
2023-02-11T11:22:38.518Z,8
2023-02-11T11:23:41.878Z,7.9
2023-02-11T11:24:44.741Z,8
2023-02-11T11:25:47.824Z,8
2023-02-11T11:26:50.827Z,8
2023-02-11T11:27:54.096Z,8
2023-02-11T11:28:57.839Z,8
2023-02-11T11:30:01.876Z,8
2023-02-11T11:31:06.058Z,8
2023-02-11T11:32:10.389Z,8
2023-02-11T11:33:14.331Z,8.1
2023-02-11T11:34:17.071Z,8.1
2023-02-11T11:35:20.413Z,8.1
2023-02-11T11:36:22.979Z,8.1
2023-02-11T11:37:27.091Z,8.1
2023-02-11T11:38:29.882Z,8.1
2023-02-11T11:39:32.653Z,8.1
2023-02-11T11:40:35.856Z,8.1
2023-02-11T11:41:39.293Z,8.2
2023-02-11T11:42:42.368Z,8.1
2023-02-11T11:43:45.737Z,8.1
2023-02-11T11:44:48.436Z,8.1
2023-02-11T11:45:52.023Z,8.1
2023-02-11T11:46:55.195Z,8.1
2023-02-11T11:47:58.018Z,8.2
2023-02-11T11:49:00.907Z,8.2
2023-02-11T11:50:03.751Z,8.2
2023-02-11T11:51:07.150Z,8.2
2023-02-11T11:52:10.045Z,8.2
2023-02-11T11:53:13.360Z,8.2
2023-02-11T11:54:16.425Z,8.2
2023-02-11T11:55:19.865Z,8.2
2023-02-11T11:56:23.538Z,8.2
2023-02-11T11:57:27.256Z,8.2
2023-02-11T11:58:29.789Z,8.3
2023-02-11T11:59:32.852Z,8.3
2023-02-11T12:00:36.185Z,8.3
2023-02-11T12:01:40.071Z,8.3
2023-02-11T12:02:43.546Z,8.3
2023-02-11T12:03:46.041Z,8.3
2023-02-11T12:04:48.756Z,8.3
2023-02-11T12:05:52.165Z,8.3
2023-02-11T12:06:55.659Z,8.4
2023-02-11T12:07:59.082Z,8.4
2023-02-11T12:09:01.797Z,8.4
2023-02-11T12:10:04.242Z,8.4
2023-02-11T12:11:06.144Z,8.4
2023-02-11T12:12:09.612Z,8.4
2023-02-11T12:13:12.587Z,8.4
2023-02-11T12:14:15.870Z,8.4
2023-02-11T12:15:19.254Z,8.5
2023-02-11T12:16:22.573Z,8.5
2023-02-11T12:17:26.308Z,8.5
2023-02-11T12:18:30.048Z,8.5
2023-02-11T12:19:34.118Z,8.5
2023-02-11T12:20:37.198Z,8.6
2023-02-11T12:21:40.113Z,8.6
2023-02-11T12:22:42.893Z,8.6
2023-02-11T12:23:46.418Z,8.6
2023-02-11T12:24:49.511Z,8.6
2023-02-11T12:25:52.773Z,8.6
2023-02-11T12:26:55.625Z,8.6
2023-02-11T12:27:59.310Z,8.6
2023-02-11T12:29:02.706Z,8.6
2023-02-11T12:30:05.816Z,8.6
2023-02-11T12:31:10.868Z,8.6
2023-02-11T12:32:16.157Z,8.6
2023-02-11T12:33:20.146Z,8.6
2023-02-11T12:34:23.516Z,8.6
2023-02-11T12:35:26.385Z,8.6
2023-02-11T12:36:29.766Z,8.6
2023-02-11T12:37:33.094Z,8.6
2023-02-11T12:38:35.030Z,8.6
2023-02-11T12:39:38.208Z,8.6
2023-02-11T12:40:41.263Z,8.5
2023-02-11T12:41:44.065Z,8.5
2023-02-11T12:42:47.024Z,8.4
2023-02-11T12:43:50.297Z,8.4
2023-02-11T12:44:53.349Z,8.5
2023-02-11T12:45:57.009Z,8.5
2023-02-11T12:46:59.887Z,8.5
2023-02-11T12:48:03.231Z,8.5
2023-02-11T12:49:07.292Z,8.5
2023-02-11T12:50:10.404Z,8.5
2023-02-11T12:51:14.068Z,8.5
2023-02-11T12:52:16.870Z,8.5
2023-02-11T12:53:20.270Z,8.4
2023-02-11T12:54:23.441Z,8.4
2023-02-11T12:55:26.458Z,8.5
2023-02-11T12:56:29.196Z,8.4
2023-02-11T12:57:31.837Z,8.4
2023-02-11T12:58:46.811Z,8.4
2023-02-11T12:59:50.397Z,8.4
2023-02-11T13:00:55.847Z,8.4
2023-02-11T13:01:59.505Z,8.4
2023-02-11T13:03:03.049Z,8.4
2023-02-11T13:04:06.076Z,8.3
2023-02-11T13:05:10.322Z,8.4
2023-02-11T13:06:16.934Z,8.4
2023-02-11T13:07:20.593Z,8.4
2023-02-11T13:08:23.615Z,8.3
2023-02-11T13:09:26.502Z,8.3
2023-02-11T13:10:30.064Z,8.3
2023-02-11T13:11:34.115Z,8.3
2023-02-11T13:12:36.834Z,8.3
2023-02-11T13:13:39.275Z,8.4
2023-02-11T13:14:42.094Z,8.4
2023-02-11T13:15:45.897Z,8.4
2023-02-11T13:16:49.624Z,8.3
2023-02-11T13:17:53.100Z,8.4
2023-02-11T13:18:56.859Z,8.3
2023-02-11T13:20:00.539Z,8.3
2023-02-11T13:21:04.609Z,8.3
2023-02-11T13:22:07.977Z,8.3
2023-02-11T13:23:11.018Z,8.3
2023-02-11T13:24:14.187Z,8.3
2023-02-11T13:25:17.189Z,8.3
2023-02-11T13:26:20.204Z,8.2
2023-02-11T13:27:22.928Z,8.2
2023-02-11T13:28:26.340Z,8.2
2023-02-11T13:29:28.958Z,8.2
2023-02-11T13:30:32.646Z,8.2
2023-02-11T13:31:37.213Z,8.2
2023-02-11T13:32:40.603Z,8.2
2023-02-11T13:33:43.942Z,8.2
2023-02-11T13:34:46.750Z,8.2
2023-02-11T13:35:50.153Z,8.2
2023-02-11T13:36:53.506Z,8.2
2023-02-11T13:37:57.270Z,8.2
2023-02-11T13:39:00.997Z,8.1
2023-02-11T13:40:04.179Z,8.1
2023-02-11T13:41:07.005Z,8.1
2023-02-11T13:42:09.505Z,8.2
2023-02-11T13:43:12.861Z,8.2
2023-02-11T13:44:16.254Z,8.2
2023-02-11T13:45:19.315Z,8.2
2023-02-11T13:46:22.502Z,8.2
2023-02-11T13:47:26.316Z,8.2
2023-02-11T13:48:28.863Z,8.2
2023-02-11T13:49:32.465Z,8.2
2023-02-11T13:50:35.918Z,8.2
2023-02-11T13:51:39.721Z,8.1
2023-02-11T13:52:43.371Z,8.1
2023-02-11T13:53:46.809Z,8.1
2023-02-11T13:54:50.185Z,8.1
2023-02-11T13:55:53.867Z,8
2023-02-11T13:56:57.052Z,8.1
2023-02-11T13:58:00.160Z,8.1
2023-02-11T13:59:04.368Z,8.1
2023-02-11T14:00:08.416Z,8
2023-02-11T14:01:11.470Z,8
2023-02-11T14:02:15.045Z,8
2023-02-11T14:03:18.765Z,8
2023-02-11T14:04:21.633Z,8
2023-02-11T14:05:25.360Z,8
2023-02-11T14:06:28.947Z,8.1
2023-02-11T14:07:31.776Z,8
2023-02-11T14:08:40.260Z,8.1
2023-02-11T14:09:43.919Z,8.1
2023-02-11T14:10:46.730Z,8.1
2023-02-11T14:11:50.438Z,8.1
2023-02-11T14:12:53.419Z,8.1
2023-02-11T14:13:56.483Z,8.1
2023-02-11T14:15:08.997Z,8.1
2023-02-11T14:16:12.647Z,8.1
2023-02-11T14:17:15.619Z,8.1
2023-02-11T14:18:19.063Z,8.1
2023-02-11T14:19:22.222Z,8.1
2023-02-11T14:20:25.379Z,8.1
2023-02-11T14:21:28.844Z,8.1
2023-02-11T14:22:32.180Z,8.1
2023-02-11T14:23:34.914Z,8.1
2023-02-11T14:24:38.282Z,8.1
2023-02-11T14:25:41.045Z,8.1
2023-02-11T14:26:43.603Z,8
2023-02-11T14:27:47.918Z,8
2023-02-11T14:28:51.440Z,8.1
2023-02-11T14:29:55.240Z,8
2023-02-11T14:30:59.468Z,8.1
2023-02-11T14:32:07.888Z,8.1
2023-02-11T14:33:11.882Z,8.1
2023-02-11T14:34:14.499Z,8.1
2023-02-11T14:35:18.221Z,8.1
2023-02-11T14:36:21.351Z,8.1
2023-02-11T14:37:24.887Z,8.1
2023-02-11T14:38:28.306Z,8.1
2023-02-11T14:39:31.180Z,8.1